Phoenix, Arizona
Traffic Map
Current Weather Conditions
Phoenix, Arizona
Few Clouds
Few Clouds
79°
Feels Like: 79°
Wind Chill: 79° Ceiling: Unl
Heat Index: 79° Visibility: 10mi
Dew Point: 32° Wind: 14mph
Humidity: 18% Direction: 250° (WSW)
Pressure: 29.71in Gusts: 0mph
Raw Report DataKPHX 230751Z 25012KT 10SM FEW290 26/00 A2971 RMK AO2 SLP041 T02610000
Traffic Incident Summary
Active as of:
Severity:
Category:
InformationThere was an issue retrieving the traffic information for this location. Please try a different location or try again shortly.
Advertisements
At Last! Intellicast now available for iPhone and Android